Aeroporto :
LOGIN :

Iscrizione | Disclaimer

   EN    FR    IT 

 










Sommario :    VFR   VFR Marginale   IFR   IFR Intensivo   IFR Molto Intensivo
Visibilità : 
Base nubi : 
>= 8 km
>= 3000ft
5 / 8 km
1000 / 3000 ft
1500m / 5 km
500 / 1000 ft
800 / 1500m
200 / 500 ft
< 800m
< 200 ft
Simboli :   Temporali  Nebbia  Neve Forte  Precipitazioni Forti  Vento > 20 kt
SIGMETs :   Varie  Temporali  Ghiacco  Turbolenza  Onda orograficha  Ceneri Vulcaniche






- Altitudine del aeroporto : 726 ft
- Codice IATA : DIJ


LFSD - Dijon

ULTIMO METAR :
  • 190130Z AUTO 10007KT CAVOK 01/M01 Q1030

METARs OBSOLETI :
  • 190100Z AUTO 08007KT 350V100 CAVOK 01/M00 Q1030
  • 190030Z AUTO 36007KT 350V090 CAVOK 01/M00 Q1030
  • 190000Z AUTO 06007KT 350V100 CAVOK 01/M00 Q1030
  • 182330Z AUTO 02009KT 350V100 CAVOK 01/00 Q1029
  • 182300Z AUTO 09007KT 350V100 CAVOK 01/00 Q1029

Previsioni scadute.



MetMap, La meteo Aeronautica in un colpo d'occhio ! - Copyright ORBIFLY Dicembre 2007 - Disclaimer

ORBIFLY MET'MAP TEAM :

Programmazione e sviluppo : Alexandra Zaïnal
Concezione : Baudouin d'Aumeries
Aiuto per la programmazione : Marc-Olivier Méhu
Supporto tecnico e logistico : Manuel Goepfert
Aiuto per la traduzione : Arnaldo La Scala

Contatto : metmap@orbifly.com




FONTI E CREDITI :

   NOAA